sensor_id;sensor_type;location;lat;lon;timestamp;temperature;humidity
19483;DHT22;9882;51.166;6.992;2022-12-19T00:01:29;0.00;99.90
19483;DHT22;9882;51.166;6.992;2022-12-19T00:03:59;0.00;99.90
19483;DHT22;9882;51.166;6.992;2022-12-19T00:06:29;0.00;99.90
19483;DHT22;9882;51.166;6.992;2022-12-19T00:08:59;0.00;99.90
19483;DHT22;9882;51.166;6.992;2022-12-19T00:11:28;0.10;99.90
19483;DHT22;9882;51.166;6.992;2022-12-19T00:13:57;0.10;99.90
19483;DHT22;9882;51.166;6.992;2022-12-19T00:16:28;0.10;99.90
19483;DHT22;9882;51.166;6.992;2022-12-19T00:18:59;0.20;99.90
19483;DHT22;9882;51.166;6.992;2022-12-19T00:21:30;0.20;99.90
19483;DHT22;9882;51.166;6.992;2022-12-19T00:23:59;0.30;99.90
19483;DHT22;9882;51.166;6.992;2022-12-19T00:26:29;0.20;99.90
19483;DHT22;9882;51.166;6.992;2022-12-19T00:29:00;0.20;99.90
19483;DHT22;9882;51.166;6.992;2022-12-19T00:31:32;0.10;99.90
19483;DHT22;9882;51.166;6.992;2022-12-19T00:34:01;0.20;99.90
19483;DHT22;9882;51.166;6.992;2022-12-19T00:39:56;0.20;99.90
19483;DHT22;9882;51.166;6.992;2022-12-19T00:42:25;0.30;99.90
19483;DHT22;9882;51.166;6.992;2022-12-19T00:44:55;0.20;99.90
19483;DHT22;9882;51.166;6.992;2022-12-19T00:47:27;0.30;99.90
19483;DHT22;9882;51.166;6.992;2022-12-19T00:49:55;0.40;99.90
19483;DHT22;9882;51.166;6.992;2022-12-19T00:52:24;0.40;99.90
19483;DHT22;9882;51.166;6.992;2022-12-19T00:54:52;0.40;99.90
19483;DHT22;9882;51.166;6.992;2022-12-19T00:57:21;0.40;99.90
19483;DHT22;9882;51.166;6.992;2022-12-19T00:59:49;0.40;99.90
19483;DHT22;9882;51.166;6.992;2022-12-19T01:02:18;0.50;99.90
19483;DHT22;9882;51.166;6.992;2022-12-19T01:04:48;0.50;99.90
19483;DHT22;9882;51.166;6.992;2022-12-19T01:07:17;0.50;99.90
19483;DHT22;9882;51.166;6.992;2022-12-19T01:09:48;0.70;99.90
19483;DHT22;9882;51.166;6.992;2022-12-19T01:12:17;0.60;99.90
19483;DHT22;9882;51.166;6.992;2022-12-19T01:15:04;0.40;99.90
19483;DHT22;9882;51.166;6.992;2022-12-19T01:17:34;0.50;99.90
19483;DHT22;9882;51.166;6.992;2022-12-19T01:20:05;0.60;99.90
19483;DHT22;9882;51.166;6.992;2022-12-19T01:22:35;0.50;99.90
19483;DHT22;9882;51.166;6.992;2022-12-19T01:25:05;0.60;99.90
19483;DHT22;9882;51.166;6.992;2022-12-19T01:27:34;0.60;99.90
19483;DHT22;9882;51.166;6.992;2022-12-19T01:30:06;0.60;99.90
19483;DHT22;9882;51.166;6.992;2022-12-19T01:32:34;0.70;99.90
19483;DHT22;9882;51.166;6.992;2022-12-19T01:35:06;0.50;99.90
19483;DHT22;9882;51.166;6.992;2022-12-19T01:37:34;0.60;99.90
19483;DHT22;9882;51.166;6.992;2022-12-19T01:40:04;0.70;99.90
19483;DHT22;9882;51.166;6.992;2022-12-19T01:42:34;0.50;99.90
19483;DHT22;9882;51.166;6.992;2022-12-19T01:45:24;0.60;99.90
19483;DHT22;9882;51.166;6.992;2022-12-19T01:48:03;0.60;99.90
19483;DHT22;9882;51.166;6.992;2022-12-19T01:50:38;0.60;99.90
19483;DHT22;9882;51.166;6.992;2022-12-19T01:53:09;0.70;99.90
19483;DHT22;9882;51.166;6.992;2022-12-19T01:55:40;0.60;99.90
19483;DHT22;9882;51.166;6.992;2022-12-19T01:58:10;0.70;99.90
19483;DHT22;9882;51.166;6.992;2022-12-19T02:00:41;0.70;99.90
19483;DHT22;9882;51.166;6.992;2022-12-19T02:03:14;0.80;99.90
19483;DHT22;9882;51.166;6.992;2022-12-19T02:05:45;0.80;99.90
19483;DHT22;9882;51.166;6.992;2022-12-19T02:08:15;0.70;99.90
19483;DHT22;9882;51.166;6.992;2022-12-19T02:10:44;0.90;99.90
19483;DHT22;9882;51.166;6.992;2022-12-19T02:13:14;0.90;99.90
19483;DHT22;9882;51.166;6.992;2022-12-19T02:15:46;0.80;99.90
19483;DHT22;9882;51.166;6.992;2022-12-19T02:18:25;0.80;99.90
19483;DHT22;9882;51.166;6.992;2022-12-19T02:21:34;0.90;99.90
19483;DHT22;9882;51.166;6.992;2022-12-19T02:28:11;0.90;99.90
19483;DHT22;9882;51.166;6.992;2022-12-19T02:31:01;0.70;99.90
19483;DHT22;9882;51.166;6.992;2022-12-19T02:33:39;0.80;99.90
19483;DHT22;9882;51.166;6.992;2022-12-19T02:36:15;0.80;99.90
19483;DHT22;9882;51.166;6.992;2022-12-19T02:38:49;0.90;99.90
19483;DHT22;9882;51.166;6.992;2022-12-19T02:41:23;1.00;99.90
19483;DHT22;9882;51.166;6.992;2022-12-19T02:43:57;1.00;99.90
19483;DHT22;9882;51.166;6.992;2022-12-19T02:46:31;1.10;99.90
19483;DHT22;9882;51.166;6.992;2022-12-19T02:49:00;1.10;99.90
19483;DHT22;9882;51.166;6.992;2022-12-19T02:51:30;0.90;99.90
19483;DHT22;9882;51.166;6.992;2022-12-19T02:53:58;1.00;99.90
19483;DHT22;9882;51.166;6.992;2022-12-19T02:56:36;1.00;99.90
19483;DHT22;9882;51.166;6.992;2022-12-19T02:59:27;1.20;99.90
19483;DHT22;9882;51.166;6.992;2022-12-19T03:02:08;1.20;99.90
19483;DHT22;9882;51.166;6.992;2022-12-19T03:04:47;1.10;99.90
19483;DHT22;9882;51.166;6.992;2022-12-19T03:07:26;1.10;99.90
19483;DHT22;9882;51.166;6.992;2022-12-19T03:10:04;1.20;99.90
19483;DHT22;9882;51.166;6.992;2022-12-19T03:12:38;1.10;99.90
19483;DHT22;9882;51.166;6.992;2022-12-19T03:15:09;1.10;99.90
19483;DHT22;9882;51.166;6.992;2022-12-19T03:17:40;1.30;99.90
19483;DHT22;9882;51.166;6.992;2022-12-19T03:20:15;1.40;99.90
19483;DHT22;9882;51.166;6.992;2022-12-19T03:22:46;1.30;99.90
19483;DHT22;9882;51.166;6.992;2022-12-19T03:25:15;1.20;99.90
19483;DHT22;9882;51.166;6.992;2022-12-19T03:27:45;1.40;99.90
19483;DHT22;9882;51.166;6.992;2022-12-19T03:30:15;1.30;99.90
19483;DHT22;9882;51.166;6.992;2022-12-19T03:32:46;1.40;99.90
19483;DHT22;9882;51.166;6.992;2022-12-19T03:35:19;1.20;99.90
19483;DHT22;9882;51.166;6.992;2022-12-19T03:37:50;1.30;99.90
19483;DHT22;9882;51.166;6.992;2022-12-19T03:40:23;1.40;99.90
19483;DHT22;9882;51.166;6.992;2022-12-19T03:42:58;1.20;99.90
19483;DHT22;9882;51.166;6.992;2022-12-19T03:45:43;1.60;99.90
19483;DHT22;9882;51.166;6.992;2022-12-19T03:48:18;1.50;99.90
19483;DHT22;9882;51.166;6.992;2022-12-19T03:50:55;1.50;99.90
19483;DHT22;9882;51.166;6.992;2022-12-19T03:53:36;1.40;99.90
19483;DHT22;9882;51.166;6.992;2022-12-19T03:56:12;1.30;99.90
19483;DHT22;9882;51.166;6.992;2022-12-19T03:58:48;1.40;99.90
19483;DHT22;9882;51.166;6.992;2022-12-19T04:01:18;1.30;99.90
19483;DHT22;9882;51.166;6.992;2022-12-19T04:03:49;1.50;99.90
19483;DHT22;9882;51.166;6.992;2022-12-19T04:06:17;1.60;99.90
19483;DHT22;9882;51.166;6.992;2022-12-19T04:08:46;1.50;99.90
19483;DHT22;9882;51.166;6.992;2022-12-19T04:11:18;1.40;99.90
19483;DHT22;9882;51.166;6.992;2022-12-19T04:13:50;1.30;99.90
19483;DHT22;9882;51.166;6.992;2022-12-19T04:16:26;1.60;99.90
19483;DHT22;9882;51.166;6.992;2022-12-19T04:19:03;1.60;99.90
19483;DHT22;9882;51.166;6.992;2022-12-19T04:21:38;1.60;99.90
19483;DHT22;9882;51.166;6.992;2022-12-19T04:24:11;1.30;99.90
19483;DHT22;9882;51.166;6.992;2022-12-19T04:26:43;1.40;99.90
19483;DHT22;9882;51.166;6.992;2022-12-19T04:29:14;1.40;99.90
19483;DHT22;9882;51.166;6.992;2022-12-19T04:31:44;1.60;99.90
19483;DHT22;9882;51.166;6.992;2022-12-19T04:34:18;1.50;99.90
19483;DHT22;9882;51.166;6.992;2022-12-19T04:36:49;1.60;99.90
19483;DHT22;9882;51.166;6.992;2022-12-19T04:39:18;1.50;99.90
19483;DHT22;9882;51.166;6.992;2022-12-19T04:41:47;1.50;99.90
19483;DHT22;9882;51.166;6.992;2022-12-19T04:44:15;1.50;99.90
19483;DHT22;9882;51.166;6.992;2022-12-19T04:46:44;1.60;99.90
19483;DHT22;9882;51.166;6.992;2022-12-19T04:49:12;1.60;99.90
19483;DHT22;9882;51.166;6.992;2022-12-19T04:51:42;1.70;99.90
19483;DHT22;9882;51.166;6.992;2022-12-19T04:54:11;1.60;99.90
19483;DHT22;9882;51.166;6.992;2022-12-19T04:56:40;1.60;99.90
19483;DHT22;9882;51.166;6.992;2022-12-19T04:59:09;1.60;99.90
19483;DHT22;9882;51.166;6.992;2022-12-19T05:01:37;1.60;99.90
19483;DHT22;9882;51.166;6.992;2022-12-19T05:04:06;1.70;99.90
19483;DHT22;9882;51.166;6.992;2022-12-19T05:06:34;1.70;99.90
19483;DHT22;9882;51.166;6.992;2022-12-19T05:09:04;1.70;99.90
19483;DHT22;9882;51.166;6.992;2022-12-19T05:11:33;1.80;99.90
19483;DHT22;9882;51.166;6.992;2022-12-19T05:14:01;1.80;99.90
19483;DHT22;9882;51.166;6.992;2022-12-19T05:16:30;1.80;99.90
19483;DHT22;9882;51.166;6.992;2022-12-19T05:18:58;1.60;99.90
19483;DHT22;9882;51.166;6.992;2022-12-19T05:21:27;1.80;99.90
19483;DHT22;9882;51.166;6.992;2022-12-19T05:23:56;1.70;99.90
19483;DHT22;9882;51.166;6.992;2022-12-19T05:26:26;1.90;99.90
19483;DHT22;9882;51.166;6.992;2022-12-19T05:28:55;1.90;99.90
19483;DHT22;9882;51.166;6.992;2022-12-19T05:31:23;1.80;99.90
19483;DHT22;9882;51.166;6.992;2022-12-19T05:33:52;1.60;99.90
19483;DHT22;9882;51.166;6.992;2022-12-19T05:36:20;1.90;99.90
19483;DHT22;9882;51.166;6.992;2022-12-19T05:38:51;1.90;99.90
19483;DHT22;9882;51.166;6.992;2022-12-19T05:41:20;1.80;99.90
19483;DHT22;9882;51.166;6.992;2022-12-19T05:43:51;1.70;99.90
19483;DHT22;9882;51.166;6.992;2022-12-19T05:46:22;1.70;99.90
19483;DHT22;9882;51.166;6.992;2022-12-19T05:48:51;1.80;99.90
19483;DHT22;9882;51.166;6.992;2022-12-19T05:51:20;2.10;99.90
19483;DHT22;9882;51.166;6.992;2022-12-19T05:53:48;2.00;99.90
19483;DHT22;9882;51.166;6.992;2022-12-19T05:56:19;2.00;99.90
19483;DHT22;9882;51.166;6.992;2022-12-19T05:58:49;1.80;99.90
19483;DHT22;9882;51.166;6.992;2022-12-19T06:01:19;1.90;99.90
19483;DHT22;9882;51.166;6.992;2022-12-19T06:03:49;2.00;99.90
19483;DHT22;9882;51.166;6.992;2022-12-19T06:06:19;2.30;99.90
19483;DHT22;9882;51.166;6.992;2022-12-19T06:08:51;2.20;99.90
19483;DHT22;9882;51.166;6.992;2022-12-19T06:11:20;2.00;99.90
19483;DHT22;9882;51.166;6.992;2022-12-19T06:13:50;2.40;99.90
19483;DHT22;9882;51.166;6.992;2022-12-19T06:16:21;2.30;99.90
19483;DHT22;9882;51.166;6.992;2022-12-19T06:18:50;2.30;99.90
19483;DHT22;9882;51.166;6.992;2022-12-19T06:21:20;2.00;99.90
19483;DHT22;9882;51.166;6.992;2022-12-19T06:23:49;2.40;99.90
19483;DHT22;9882;51.166;6.992;2022-12-19T06:26:21;2.60;99.90
19483;DHT22;9882;51.166;6.992;2022-12-19T06:28:51;2.50;99.90
19483;DHT22;9882;51.166;6.992;2022-12-19T06:31:23;2.50;99.90
19483;DHT22;9882;51.166;6.992;2022-12-19T06:33:53;2.10;99.90
19483;DHT22;9882;51.166;6.992;2022-12-19T06:36:23;2.20;99.90
19483;DHT22;9882;51.166;6.992;2022-12-19T06:38:53;2.40;99.90
19483;DHT22;9882;51.166;6.992;2022-12-19T06:41:22;2.40;99.90
19483;DHT22;9882;51.166;6.992;2022-12-19T06:44:11;2.20;99.90
19483;DHT22;9882;51.166;6.992;2022-12-19T06:46:40;2.50;99.90
19483;DHT22;9882;51.166;6.992;2022-12-19T06:49:12;2.60;99.90
19483;DHT22;9882;51.166;6.992;2022-12-19T06:51:40;2.30;99.90
19483;DHT22;9882;51.166;6.992;2022-12-19T06:54:09;2.50;99.90
19483;DHT22;9882;51.166;6.992;2022-12-19T06:56:39;2.50;99.90
19483;DHT22;9882;51.166;6.992;2022-12-19T06:59:11;2.30;99.90
19483;DHT22;9882;51.166;6.992;2022-12-19T07:01:52;2.30;99.90
19483;DHT22;9882;51.166;6.992;2022-12-19T07:04:26;2.80;99.90
19483;DHT22;9882;51.166;6.992;2022-12-19T07:06:56;2.80;99.90
19483;DHT22;9882;51.166;6.992;2022-12-19T07:09:27;2.80;99.90
19483;DHT22;9882;51.166;6.992;2022-12-19T07:11:56;2.60;99.90
19483;DHT22;9882;51.166;6.992;2022-12-19T07:14:26;2.90;99.90
19483;DHT22;9882;51.166;6.992;2022-12-19T07:16:57;3.10;99.90
19483;DHT22;9882;51.166;6.992;2022-12-19T07:19:26;3.10;99.90
19483;DHT22;9882;51.166;6.992;2022-12-19T07:21:55;3.30;99.90
19483;DHT22;9882;51.166;6.992;2022-12-19T07:24:24;2.80;99.90
19483;DHT22;9882;51.166;6.992;2022-12-19T07:26:53;2.70;99.90
19483;DHT22;9882;51.166;6.992;2022-12-19T07:29:21;3.30;99.90
19483;DHT22;9882;51.166;6.992;2022-12-19T07:31:51;3.30;99.90
19483;DHT22;9882;51.166;6.992;2022-12-19T07:34:20;3.10;99.90
19483;DHT22;9882;51.166;6.992;2022-12-19T07:36:51;2.80;99.90
19483;DHT22;9882;51.166;6.992;2022-12-19T07:39:20;3.00;99.90
19483;DHT22;9882;51.166;6.992;2022-12-19T07:41:49;2.90;99.90
19483;DHT22;9882;51.166;6.992;2022-12-19T07:44:29;2.70;99.90
19483;DHT22;9882;51.166;6.992;2022-12-19T07:46:59;2.90;99.90
19483;DHT22;9882;51.166;6.992;2022-12-19T07:49:27;2.90;99.90
19483;DHT22;9882;51.166;6.992;2022-12-19T07:51:56;3.10;99.90
19483;DHT22;9882;51.166;6.992;2022-12-19T07:54:24;2.80;99.90
19483;DHT22;9882;51.166;6.992;2022-12-19T07:56:53;3.00;99.90
19483;DHT22;9882;51.166;6.992;2022-12-19T07:59:21;3.20;99.90
19483;DHT22;9882;51.166;6.992;2022-12-19T08:01:53;3.10;99.90
19483;DHT22;9882;51.166;6.992;2022-12-19T08:04:23;3.60;99.90
19483;DHT22;9882;51.166;6.992;2022-12-19T08:06:52;3.90;99.90
19483;DHT22;9882;51.166;6.992;2022-12-19T08:09:20;4.20;99.90
19483;DHT22;9882;51.166;6.992;2022-12-19T08:11:49;4.40;99.90
19483;DHT22;9882;51.166;6.992;2022-12-19T08:14:17;4.40;99.90
19483;DHT22;9882;51.166;6.992;2022-12-19T08:16:46;4.50;99.90
19483;DHT22;9882;51.166;6.992;2022-12-19T08:19:36;4.60;99.90
19483;DHT22;9882;51.166;6.992;2022-12-19T08:22:04;4.70;99.90
19483;DHT22;9882;51.166;6.992;2022-12-19T08:24:33;4.80;99.90
19483;DHT22;9882;51.166;6.992;2022-12-19T08:27:02;4.80;99.90
19483;DHT22;9882;51.166;6.992;2022-12-19T08:29:30;4.80;99.90
19483;DHT22;9882;51.166;6.992;2022-12-19T08:31:59;4.90;99.90
19483;DHT22;9882;51.166;6.992;2022-12-19T08:34:27;4.90;99.90
19483;DHT22;9882;51.166;6.992;2022-12-19T08:36:59;5.00;99.90
19483;DHT22;9882;51.166;6.992;2022-12-19T08:39:27;5.00;99.90
19483;DHT22;9882;51.166;6.992;2022-12-19T08:41:55;5.00;99.90
19483;DHT22;9882;51.166;6.992;2022-12-19T08:44:24;5.00;99.90
19483;DHT22;9882;51.166;6.992;2022-12-19T08:46:53;5.00;99.90
19483;DHT22;9882;51.166;6.992;2022-12-19T08:49:21;5.00;99.90
19483;DHT22;9882;51.166;6.992;2022-12-19T08:51:50;5.00;99.90
19483;DHT22;9882;51.166;6.992;2022-12-19T08:54:20;5.00;99.90
19483;DHT22;9882;51.166;6.992;2022-12-19T08:56:48;5.10;99.90
19483;DHT22;9882;51.166;6.992;2022-12-19T08:59:17;5.00;99.90
19483;DHT22;9882;51.166;6.992;2022-12-19T09:01:45;5.10;99.90
19483;DHT22;9882;51.166;6.992;2022-12-19T09:04:14;5.10;99.90
19483;DHT22;9882;51.166;6.992;2022-12-19T09:06:42;5.00;99.90
19483;DHT22;9882;51.166;6.992;2022-12-19T09:09:11;5.00;99.90
19483;DHT22;9882;51.166;6.992;2022-12-19T09:11:41;5.10;99.90
19483;DHT22;9882;51.166;6.992;2022-12-19T09:14:09;5.10;99.90
19483;DHT22;9882;51.166;6.992;2022-12-19T09:16:37;5.10;99.90
19483;DHT22;9882;51.166;6.992;2022-12-19T09:19:06;5.20;99.90
19483;DHT22;9882;51.166;6.992;2022-12-19T09:21:41;5.10;99.90
19483;DHT22;9882;51.166;6.992;2022-12-19T09:24:10;5.10;99.90
19483;DHT22;9882;51.166;6.992;2022-12-19T09:26:38;5.10;99.90
19483;DHT22;9882;51.166;6.992;2022-12-19T09:29:09;5.20;99.90
19483;DHT22;9882;51.166;6.992;2022-12-19T09:31:38;5.20;99.90
19483;DHT22;9882;51.166;6.992;2022-12-19T09:34:06;5.20;99.90
19483;DHT22;9882;51.166;6.992;2022-12-19T09:36:35;5.20;99.90
19483;DHT22;9882;51.166;6.992;2022-12-19T09:39:03;5.20;99.90
19483;DHT22;9882;51.166;6.992;2022-12-19T09:41:44;5.20;99.90
19483;DHT22;9882;51.166;6.992;2022-12-19T09:44:30;5.20;99.90
19483;DHT22;9882;51.166;6.992;2022-12-19T09:47:04;5.20;99.90
19483;DHT22;9882;51.166;6.992;2022-12-19T09:49:39;5.10;99.90
19483;DHT22;9882;51.166;6.992;2022-12-19T09:52:12;5.20;99.90
19483;DHT22;9882;51.166;6.992;2022-12-19T09:54:46;5.20;99.90
19483;DHT22;9882;51.166;6.992;2022-12-19T09:57:19;5.20;99.90
19483;DHT22;9882;51.166;6.992;2022-12-19T09:59:55;5.20;99.90
19483;DHT22;9882;51.166;6.992;2022-12-19T10:02:33;5.30;99.90
19483;DHT22;9882;51.166;6.992;2022-12-19T10:05:13;5.30;99.90
19483;DHT22;9882;51.166;6.992;2022-12-19T10:07:42;5.30;99.90
19483;DHT22;9882;51.166;6.992;2022-12-19T10:10:36;5.30;99.90
19483;DHT22;9882;51.166;6.992;2022-12-19T10:13:19;5.30;99.90
19483;DHT22;9882;51.166;6.992;2022-12-19T10:15:59;5.30;99.90
19483;DHT22;9882;51.166;6.992;2022-12-19T10:18:49;5.20;99.90
19483;DHT22;9882;51.166;6.992;2022-12-19T10:21:31;5.30;99.90
19483;DHT22;9882;51.166;6.992;2022-12-19T10:24:27;5.30;99.90
19483;DHT22;9882;51.166;6.992;2022-12-19T10:27:09;5.30;99.90
19483;DHT22;9882;51.166;6.992;2022-12-19T10:29:54;5.40;99.90
19483;DHT22;9882;51.166;6.992;2022-12-19T10:32:35;5.40;99.90
19483;DHT22;9882;51.166;6.992;2022-12-19T10:35:12;5.30;99.90
19483;DHT22;9882;51.166;6.992;2022-12-19T10:37:46;5.30;99.90
19483;DHT22;9882;51.166;6.992;2022-12-19T10:40:22;5.30;99.90
19483;DHT22;9882;51.166;6.992;2022-12-19T10:42:58;5.30;99.90
19483;DHT22;9882;51.166;6.992;2022-12-19T10:45:32;5.30;99.90
19483;DHT22;9882;51.166;6.992;2022-12-19T10:48:08;5.30;99.90
19483;DHT22;9882;51.166;6.992;2022-12-19T10:50:39;5.40;99.90
19483;DHT22;9882;51.166;6.992;2022-12-19T10:53:08;5.30;99.90
19483;DHT22;9882;51.166;6.992;2022-12-19T10:55:43;5.40;99.90
19483;DHT22;9882;51.166;6.992;2022-12-19T10:58:20;5.40;99.90
19483;DHT22;9882;51.166;6.992;2022-12-19T11:01:03;5.40;99.90
19483;DHT22;9882;51.166;6.992;2022-12-19T11:03:34;5.50;99.90
19483;DHT22;9882;51.166;6.992;2022-12-19T11:06:03;5.60;99.90
19483;DHT22;9882;51.166;6.992;2022-12-19T11:08:33;5.50;99.90
19483;DHT22;9882;51.166;6.992;2022-12-19T11:11:11;5.50;99.90
19483;DHT22;9882;51.166;6.992;2022-12-19T11:13:42;5.40;99.90
19483;DHT22;9882;51.166;6.992;2022-12-19T11:16:13;5.40;99.90
19483;DHT22;9882;51.166;6.992;2022-12-19T11:18:49;5.50;99.90
19483;DHT22;9882;51.166;6.992;2022-12-19T11:21:22;5.50;99.90
19483;DHT22;9882;51.166;6.992;2022-12-19T11:23:56;5.40;99.90
19483;DHT22;9882;51.166;6.992;2022-12-19T11:26:33;5.50;99.90
19483;DHT22;9882;51.166;6.992;2022-12-19T11:29:14;5.50;99.90
19483;DHT22;9882;51.166;6.992;2022-12-19T11:32:04;5.60;99.90
19483;DHT22;9882;51.166;6.992;2022-12-19T11:34:59;5.50;99.90
19483;DHT22;9882;51.166;6.992;2022-12-19T11:37:35;5.50;99.90
19483;DHT22;9882;51.166;6.992;2022-12-19T11:40:09;5.60;99.90
19483;DHT22;9882;51.166;6.992;2022-12-19T11:42:48;5.60;99.90
19483;DHT22;9882;51.166;6.992;2022-12-19T11:45:38;5.50;99.90
19483;DHT22;9882;51.166;6.992;2022-12-19T11:48:12;5.60;99.90
19483;DHT22;9882;51.166;6.992;2022-12-19T11:50:55;5.60;99.90
19483;DHT22;9882;51.166;6.992;2022-12-19T11:53:28;5.70;99.90
19483;DHT22;9882;51.166;6.992;2022-12-19T11:55:59;5.70;99.90
19483;DHT22;9882;51.166;6.992;2022-12-19T11:58:30;5.80;99.90
19483;DHT22;9882;51.166;6.992;2022-12-19T12:01:06;5.70;99.90
19483;DHT22;9882;51.166;6.992;2022-12-19T12:03:47;5.70;99.90
19483;DHT22;9882;51.166;6.992;2022-12-19T12:06:20;5.70;99.90
19483;DHT22;9882;51.166;6.992;2022-12-19T12:08:59;5.70;99.90
19483;DHT22;9882;51.166;6.992;2022-12-19T12:11:39;5.70;99.90
19483;DHT22;9882;51.166;6.992;2022-12-19T12:14:18;5.70;99.90
19483;DHT22;9882;51.166;6.992;2022-12-19T12:16:59;5.80;99.90
19483;DHT22;9882;51.166;6.992;2022-12-19T12:19:38;5.90;99.90
19483;DHT22;9882;51.166;6.992;2022-12-19T12:22:20;5.80;99.90
19483;DHT22;9882;51.166;6.992;2022-12-19T12:24:56;5.80;99.90
19483;DHT22;9882;51.166;6.992;2022-12-19T12:27:38;5.90;99.90
19483;DHT22;9882;51.166;6.992;2022-12-19T12:30:12;5.90;99.90
19483;DHT22;9882;51.166;6.992;2022-12-19T12:32:52;6.00;99.90
19483;DHT22;9882;51.166;6.992;2022-12-19T12:35:32;6.00;99.90
19483;DHT22;9882;51.166;6.992;2022-12-19T12:38:36;6.00;99.90
19483;DHT22;9882;51.166;6.992;2022-12-19T12:41:18;6.00;99.90
19483;DHT22;9882;51.166;6.992;2022-12-19T12:44:12;6.00;99.90
19483;DHT22;9882;51.166;6.992;2022-12-19T12:46:45;6.10;99.90
19483;DHT22;9882;51.166;6.992;2022-12-19T12:49:27;6.10;99.90
19483;DHT22;9882;51.166;6.992;2022-12-19T12:51:59;6.10;99.90
19483;DHT22;9882;51.166;6.992;2022-12-19T12:54:34;5.90;99.90
19483;DHT22;9882;51.166;6.992;2022-12-19T12:57:04;6.00;99.90
19483;DHT22;9882;51.166;6.992;2022-12-19T12:59:33;6.10;99.90
19483;DHT22;9882;51.166;6.992;2022-12-19T13:02:14;6.20;99.90
19483;DHT22;9882;51.166;6.992;2022-12-19T13:04:55;6.20;99.90
19483;DHT22;9882;51.166;6.992;2022-12-19T13:07:28;6.30;99.90
19483;DHT22;9882;51.166;6.992;2022-12-19T13:10:16;6.10;99.90
19483;DHT22;9882;51.166;6.992;2022-12-19T13:12:59;6.10;99.90
19483;DHT22;9882;51.166;6.992;2022-12-19T13:15:37;6.20;99.90
19483;DHT22;9882;51.166;6.992;2022-12-19T13:21:07;6.20;99.90
19483;DHT22;9882;51.166;6.992;2022-12-19T13:23:45;6.10;99.90
19483;DHT22;9882;51.166;6.992;2022-12-19T13:26:46;6.10;99.90
19483;DHT22;9882;51.166;6.992;2022-12-19T13:29:31;6.20;99.90
19483;DHT22;9882;51.166;6.992;2022-12-19T13:32:08;6.30;99.90
19483;DHT22;9882;51.166;6.992;2022-12-19T13:34:38;6.30;99.90
19483;DHT22;9882;51.166;6.992;2022-12-19T13:37:25;6.20;99.90
19483;DHT22;9882;51.166;6.992;2022-12-19T13:40:01;6.20;99.90
19483;DHT22;9882;51.166;6.992;2022-12-19T13:42:49;6.20;99.90
19483;DHT22;9882;51.166;6.992;2022-12-19T13:45:39;6.20;99.90
19483;DHT22;9882;51.166;6.992;2022-12-19T13:48:13;6.30;99.90
19483;DHT22;9882;51.166;6.992;2022-12-19T13:50:45;6.20;99.90
19483;DHT22;9882;51.166;6.992;2022-12-19T13:53:16;6.20;99.90
19483;DHT22;9882;51.166;6.992;2022-12-19T13:55:45;6.10;99.90
19483;DHT22;9882;51.166;6.992;2022-12-19T13:58:22;6.20;99.90
19483;DHT22;9882;51.166;6.992;2022-12-19T14:00:52;6.10;99.90
19483;DHT22;9882;51.166;6.992;2022-12-19T14:03:32;6.10;99.90
19483;DHT22;9882;51.166;6.992;2022-12-19T14:06:09;6.00;99.90
19483;DHT22;9882;51.166;6.992;2022-12-19T14:08:38;6.00;99.90
19483;DHT22;9882;51.166;6.992;2022-12-19T14:11:08;6.10;99.90
19483;DHT22;9882;51.166;6.992;2022-12-19T14:13:45;6.00;99.90
19483;DHT22;9882;51.166;6.992;2022-12-19T14:16:36;6.00;99.90
19483;DHT22;9882;51.166;6.992;2022-12-19T14:19:17;6.20;99.90
19483;DHT22;9882;51.166;6.992;2022-12-19T14:21:46;6.20;99.90
19483;DHT22;9882;51.166;6.992;2022-12-19T14:24:16;6.20;99.90
19483;DHT22;9882;51.166;6.992;2022-12-19T14:26:47;6.10;99.90
19483;DHT22;9882;51.166;6.992;2022-12-19T14:29:22;6.00;99.90
19483;DHT22;9882;51.166;6.992;2022-12-19T14:31:52;6.00;99.90
19483;DHT22;9882;51.166;6.992;2022-12-19T14:34:23;6.10;99.90
19483;DHT22;9882;51.166;6.992;2022-12-19T14:37:28;6.10;99.90
19483;DHT22;9882;51.166;6.992;2022-12-19T14:39:58;6.10;99.90
19483;DHT22;9882;51.166;6.992;2022-12-19T14:42:27;6.00;99.90
19483;DHT22;9882;51.166;6.992;2022-12-19T14:45:33;6.10;99.90
19483;DHT22;9882;51.166;6.992;2022-12-19T14:48:24;6.10;99.90
19483;DHT22;9882;51.166;6.992;2022-12-19T14:51:03;6.10;99.90
19483;DHT22;9882;51.166;6.992;2022-12-19T14:53:32;6.10;99.90
19483;DHT22;9882;51.166;6.992;2022-12-19T14:56:05;6.20;99.90
19483;DHT22;9882;51.166;6.992;2022-12-19T14:58:56;6.10;99.90
19483;DHT22;9882;51.166;6.992;2022-12-19T15:01:28;6.20;99.90
19483;DHT22;9882;51.166;6.992;2022-12-19T15:04:01;6.10;99.90
19483;DHT22;9882;51.166;6.992;2022-12-19T15:06:30;6.10;99.90
19483;DHT22;9882;51.166;6.992;2022-12-19T15:09:02;6.00;99.90
19483;DHT22;9882;51.166;6.992;2022-12-19T15:11:33;6.10;99.90
19483;DHT22;9882;51.166;6.992;2022-12-19T15:14:31;6.20;99.90
19483;DHT22;9882;51.166;6.992;2022-12-19T15:17:09;6.10;99.90
19483;DHT22;9882;51.166;6.992;2022-12-19T15:19:44;6.10;99.90
19483;DHT22;9882;51.166;6.992;2022-12-19T15:22:12;6.10;99.90
19483;DHT22;9882;51.166;6.992;2022-12-19T15:24:41;6.10;99.90
19483;DHT22;9882;51.166;6.992;2022-12-19T15:27:11;6.30;99.90
19483;DHT22;9882;51.166;6.992;2022-12-19T15:29:41;6.20;99.90
19483;DHT22;9882;51.166;6.992;2022-12-19T15:32:13;6.10;99.90
19483;DHT22;9882;51.166;6.992;2022-12-19T15:34:43;6.10;99.90
19483;DHT22;9882;51.166;6.992;2022-12-19T15:37:16;6.20;99.90
19483;DHT22;9882;51.166;6.992;2022-12-19T15:39:46;6.20;99.90
19483;DHT22;9882;51.166;6.992;2022-12-19T15:42:17;6.30;99.90
19483;DHT22;9882;51.166;6.992;2022-12-19T15:44:48;6.20;99.90
19483;DHT22;9882;51.166;6.992;2022-12-19T15:47:32;6.20;99.90
19483;DHT22;9882;51.166;6.992;2022-12-19T15:50:09;6.30;99.90
19483;DHT22;9882;51.166;6.992;2022-12-19T15:52:41;6.20;99.90
19483;DHT22;9882;51.166;6.992;2022-12-19T15:55:12;6.40;99.90
19483;DHT22;9882;51.166;6.992;2022-12-19T15:57:42;6.30;99.90
19483;DHT22;9882;51.166;6.992;2022-12-19T16:00:16;6.40;99.90
19483;DHT22;9882;51.166;6.992;2022-12-19T16:02:47;6.30;99.90
19483;DHT22;9882;51.166;6.992;2022-12-19T16:05:36;6.30;99.90
19483;DHT22;9882;51.166;6.992;2022-12-19T16:08:08;6.20;99.90
19483;DHT22;9882;51.166;6.992;2022-12-19T16:10:37;6.20;99.90
19483;DHT22;9882;51.166;6.992;2022-12-19T16:13:11;6.30;99.90
19483;DHT22;9882;51.166;6.992;2022-12-19T16:15:43;6.30;99.90
19483;DHT22;9882;51.166;6.992;2022-12-19T16:18:13;6.30;99.90
19483;DHT22;9882;51.166;6.992;2022-12-19T16:20:42;6.30;99.90
19483;DHT22;9882;51.166;6.992;2022-12-19T16:23:11;6.50;99.90
19483;DHT22;9882;51.166;6.992;2022-12-19T16:25:41;7.00;99.90
19483;DHT22;9882;51.166;6.992;2022-12-19T16:28:14;7.30;99.90
19483;DHT22;9882;51.166;6.992;2022-12-19T16:30:44;7.60;99.90
19483;DHT22;9882;51.166;6.992;2022-12-19T16:33:19;7.70;99.90
19483;DHT22;9882;51.166;6.992;2022-12-19T16:35:49;7.80;99.90
19483;DHT22;9882;51.166;6.992;2022-12-19T16:38:34;7.90;99.90
19483;DHT22;9882;51.166;6.992;2022-12-19T16:41:02;8.00;99.90
19483;DHT22;9882;51.166;6.992;2022-12-19T16:43:34;8.10;99.90
19483;DHT22;9882;51.166;6.992;2022-12-19T16:46:04;8.10;99.90
19483;DHT22;9882;51.166;6.992;2022-12-19T16:48:35;8.10;99.90
19483;DHT22;9882;51.166;6.992;2022-12-19T16:51:06;8.10;99.90
19483;DHT22;9882;51.166;6.992;2022-12-19T16:53:37;8.20;99.90